createdAt,value
2022-08-08T00:00:54.390Z,100596.75
2022-08-08T00:03:47.580Z,100601.44
2022-08-08T00:06:41.759Z,100604.09
2022-08-08T00:09:44.465Z,100602.34
2022-08-08T00:12:23.715Z,100591.91
2022-08-08T00:15:55.833Z,100599.06
2022-08-08T00:18:17.937Z,100605.75
2022-08-08T00:20:54.274Z,100604.09
2022-08-08T00:23:51.205Z,100609.38
2022-08-08T00:26:43.471Z,100609.00
2022-08-08T00:29:45.471Z,100606.03
2022-08-08T00:32:34.686Z,100611.94
2022-08-08T00:35:59.915Z,100616.56
2022-08-08T00:41:07.361Z,100616.22
2022-08-08T00:42:42.156Z,100613.31
2022-08-08T00:45:53.498Z,100622.63
2022-08-08T00:49:22.099Z,100613.81
2022-08-08T00:52:48.475Z,100619.69
2022-08-08T00:56:19.230Z,100617.16
2022-08-08T00:59:10.426Z,100622.84
2022-08-08T01:03:16.042Z,100630.31
2022-08-08T01:05:58.459Z,100626.56
2022-08-08T01:09:36.032Z,100630.38
2022-08-08T01:12:27.695Z,100634.94
2022-08-08T01:15:44.108Z,100636.47
2022-08-08T01:19:11.724Z,100634.41
2022-08-08T01:22:35.187Z,100644.72
2022-08-08T01:25:40.386Z,100635.81
2022-08-08T01:28:28.025Z,100638.09
2022-08-08T01:32:13.464Z,100630.88
2022-08-08T01:34:54.623Z,100629.97
2022-08-08T01:37:58.035Z,100623.53
2022-08-08T01:40:40.650Z,100619.28
2022-08-08T01:43:39.067Z,100621.00
2022-08-08T01:46:11.996Z,100613.69
2022-08-08T01:49:10.971Z,100619.38
2022-08-08T01:52:41.221Z,100626.91
2022-08-08T01:56:26.937Z,100623.19
2022-08-08T01:58:38.646Z,100623.19
2022-08-08T02:01:28.174Z,100631.56
2022-08-08T02:04:28.933Z,100629.44
2022-08-08T02:07:13.783Z,100636.22
2022-08-08T02:10:44.996Z,100626.06
2022-08-08T02:13:53.286Z,100621.69
2022-08-08T02:16:29.115Z,100635.97
2022-08-08T02:19:41.867Z,100633.94
2022-08-08T02:22:32.543Z,100630.91
2022-08-08T02:25:19.374Z,100635.94
2022-08-08T02:28:10.843Z,100636.91
2022-08-08T02:31:43.362Z,100631.16
2022-08-08T02:34:33.212Z,100631.22
2022-08-08T02:37:52.576Z,100632.00
2022-08-08T02:40:56.938Z,100637.63
2022-08-08T02:44:42.464Z,100631.84
2022-08-08T02:47:23.986Z,100639.72
2022-08-08T02:50:55.570Z,100635.78
2022-08-08T02:54:06.760Z,100636.06
2022-08-08T02:56:42.762Z,100645.13
2022-08-08T02:59:57.745Z,100643.31
2022-08-08T03:03:03.048Z,100643.75
2022-08-08T03:05:45.397Z,100641.59
2022-08-08T03:08:56.966Z,100639.19
2022-08-08T03:12:14.378Z,100637.56
2022-08-08T03:15:57.762Z,100635.84
2022-08-08T03:18:32.084Z,100639.00
2022-08-08T03:20:58.916Z,100637.91
2022-08-08T03:23:56.149Z,100654.03
2022-08-08T03:26:31.012Z,100652.69
2022-08-08T03:29:04.569Z,100645.78
2022-08-08T03:32:08.624Z,100652.50
2022-08-08T03:34:37.701Z,100652.81
2022-08-08T03:37:58.961Z,100654.53
2022-08-08T03:40:02.278Z,100650.22
2022-08-08T03:42:32.131Z,100659.06
2022-08-08T03:44:59.605Z,100659.41
2022-08-08T03:47:45.224Z,100658.59
2022-08-08T03:50:24.594Z,100659.78
2022-08-08T03:52:54.624Z,100658.63
2022-08-08T03:55:57.485Z,100659.41
2022-08-08T03:58:35.255Z,100663.72
2022-08-08T04:01:02.107Z,100674.91
2022-08-08T04:03:58.958Z,100660.56
2022-08-08T04:06:29.814Z,100667.66
2022-08-08T04:09:10.363Z,100665.66
2022-08-08T04:11:58.141Z,100670.63
2022-08-08T04:14:34.311Z,100670.59
2022-08-08T04:17:06.916Z,100672.41
2022-08-08T04:19:43.819Z,100675.50
2022-08-08T04:22:10.857Z,100680.78
2022-08-08T04:24:41.939Z,100686.81
2022-08-08T04:27:19.742Z,100686.22
2022-08-08T04:30:17.276Z,100691.16
2022-08-08T04:32:44.877Z,100691.47
2022-08-08T04:35:15.257Z,100690.88
2022-08-08T04:37:42.184Z,100694.22
2022-08-08T04:40:12.409Z,100695.56
2022-08-08T04:42:55.993Z,100699.81
2022-08-08T04:45:25.527Z,100697.13
2022-08-08T04:47:53.883Z,100699.91
2022-08-08T04:50:25.418Z,100705.84
2022-08-08T04:53:00.477Z,100707.41
2022-08-08T04:55:37.616Z,100719.41
2022-08-08T04:58:17.544Z,100719.38
2022-08-08T05:00:47.621Z,100719.94
2022-08-08T05:03:18.862Z,100719.97
2022-08-08T05:06:13.620Z,100716.94
2022-08-08T05:08:51.844Z,100728.69
2022-08-08T05:11:24.265Z,100731.88
2022-08-08T05:13:57.935Z,100737.06
2022-08-08T05:16:54.854Z,100734.63
2022-08-08T05:20:04.263Z,100735.94
2022-08-08T05:22:08.880Z,100732.75
2022-08-08T05:24:38.470Z,100735.22
2022-08-08T05:27:06.607Z,100733.59
2022-08-08T05:29:36.086Z,100733.50
2022-08-08T05:32:07.376Z,100736.84
2022-08-08T05:34:50.785Z,100746.13
2022-08-08T05:37:49.019Z,100744.09
2022-08-08T05:40:17.621Z,100747.53
2022-08-08T05:42:54.216Z,100740.09
2022-08-08T05:45:25.395Z,100742.63
2022-08-08T05:48:08.925Z,100748.41
2022-08-08T05:50:38.496Z,100744.59
2022-08-08T05:53:54.666Z,100747.44
2022-08-08T05:56:07.752Z,100745.94
2022-08-08T05:58:58.044Z,100743.44
2022-08-08T06:01:55.590Z,100750.47
2022-08-08T06:04:26.157Z,100750.81
2022-08-08T06:07:00.082Z,100748.56
2022-08-08T06:09:59.881Z,100753.19
2022-08-08T06:12:29.730Z,100762.53
2022-08-08T06:15:01.165Z,100757.66
2022-08-08T06:18:18.719Z,100763.38
2022-08-08T06:20:25.983Z,100758.78
2022-08-08T06:22:53.903Z,100763.19
2022-08-08T06:26:34.754Z,100763.81
2022-08-08T06:28:18.327Z,100764.31
2022-08-08T06:30:50.718Z,100768.63
2022-08-08T06:33:36.979Z,100769.44
2022-08-08T06:36:10.666Z,100775.34
2022-08-08T06:38:41.043Z,100772.38
2022-08-08T06:41:13.070Z,100777.75
2022-08-08T06:43:57.438Z,100776.59
2022-08-08T06:46:24.928Z,100777.28
2022-08-08T06:48:57.619Z,100768.78
2022-08-08T06:51:31.233Z,100767.97
2022-08-08T06:54:13.375Z,100776.19
2022-08-08T06:56:41.939Z,100774.31
2022-08-08T06:59:14.227Z,100782.50
2022-08-08T07:02:17.618Z,100776.44
2022-08-08T07:05:11.993Z,100779.28
2022-08-08T07:07:55.248Z,100774.63
2022-08-08T07:10:24.880Z,100782.13
2022-08-08T07:13:06.192Z,100784.59
2022-08-08T07:16:06.315Z,100786.03
2022-08-08T07:18:49.959Z,100782.97
2022-08-08T07:21:22.337Z,100785.19
2022-08-08T07:24:02.801Z,100781.34
2022-08-08T07:26:35.276Z,100776.84
2022-08-08T07:29:08.187Z,100773.16
2022-08-08T07:31:40.579Z,100783.97
2022-08-08T07:34:10.326Z,100783.78
2022-08-08T07:36:50.454Z,100782.09
2022-08-08T07:39:29.763Z,100784.91
2022-08-08T07:42:18.999Z,100777.56
2022-08-08T07:44:48.274Z,100771.13
2022-08-08T07:47:18.314Z,100765.81
2022-08-08T07:49:57.532Z,100770.34
2022-08-08T07:52:27.223Z,100777.94
2022-08-08T07:55:28.556Z,100774.25
2022-08-08T07:58:18.080Z,100780.72
2022-08-08T08:01:15.979Z,100783.97
2022-08-08T08:04:03.871Z,100782.16
2022-08-08T08:06:38.573Z,100786.09
2022-08-08T08:09:41.802Z,100793.06
2022-08-08T08:12:31.390Z,100785.78
2022-08-08T08:15:07.095Z,100786.56
2022-08-08T08:17:47.467Z,100792.81
2022-08-08T08:20:18.586Z,100782.13
2022-08-08T08:22:47.444Z,100781.59
2022-08-08T08:25:17.029Z,100778.91
2022-08-08T08:28:03.074Z,100783.09
2022-08-08T08:30:30.655Z,100775.19
2022-08-08T08:32:59.318Z,100767.19
2022-08-08T08:35:29.887Z,100768.47
2022-08-08T08:38:17.535Z,100770.00
2022-08-08T08:40:51.175Z,100781.28
2022-08-08T08:43:20.231Z,100769.78
2022-08-08T08:45:58.131Z,100766.00
2022-08-08T08:48:31.715Z,100761.84
2022-08-08T08:51:03.281Z,100761.53
2022-08-08T08:53:56.561Z,100766.38
2022-08-08T08:56:25.585Z,100760.84
2022-08-08T08:58:57.193Z,100756.72
2022-08-08T09:01:32.305Z,100759.25
2022-08-08T09:04:31.642Z,100767.28
2022-08-08T09:06:59.602Z,100757.72
2022-08-08T09:09:40.300Z,100766.59
2022-08-08T09:12:19.934Z,100774.91
2022-08-08T09:14:50.144Z,100768.44
2022-08-08T09:17:19.658Z,100766.97
2022-08-08T09:21:58.546Z,100758.72
2022-08-08T09:22:47.705Z,100755.38
2022-08-08T09:25:15.685Z,100764.22
2022-08-08T09:27:57.427Z,100763.91
2022-08-08T09:30:29.697Z,100749.13
2022-08-08T09:33:54.047Z,100752.59
2022-08-08T09:35:49.899Z,100748.72
2022-08-08T09:38:56.264Z,100744.56
2022-08-08T09:42:14.486Z,100737.88
2022-08-08T09:45:03.848Z,100743.75
2022-08-08T09:48:09.607Z,100745.81
2022-08-08T09:50:32.549Z,100746.75
2022-08-08T09:53:15.296Z,100741.84
2022-08-08T09:56:05.128Z,100743.78
2022-08-08T09:58:41.805Z,100747.56
2022-08-08T10:01:59.547Z,100738.38
2022-08-08T10:04:15.208Z,100739.47
2022-08-08T10:07:07.538Z,100732.47
2022-08-08T10:09:35.839Z,100729.97
2022-08-08T10:12:38.215Z,100724.28
2022-08-08T10:15:20.032Z,100735.56
2022-08-08T10:18:05.494Z,100724.28
2022-08-08T10:20:51.268Z,100720.22
2022-08-08T10:23:45.017Z,100716.50
2022-08-08T10:26:52.106Z,100707.94
2022-08-08T10:29:58.461Z,100708.53
2022-08-08T10:32:40.308Z,100703.31
2022-08-08T10:36:06.289Z,100706.00
2022-08-08T10:38:08.538Z,100699.97
2022-08-08T10:40:38.807Z,100696.81
2022-08-08T10:43:07.191Z,100703.00
2022-08-08T10:45:56.644Z,100696.56
2022-08-08T10:48:56.671Z,100691.56
2022-08-08T10:51:31.530Z,100698.91
2022-08-08T10:54:08.345Z,100693.66
2022-08-08T10:56:43.290Z,100689.63
2022-08-08T10:59:14.081Z,100685.56
2022-08-08T11:01:49.404Z,100699.19
2022-08-08T11:04:29.656Z,100683.66
2022-08-08T11:07:07.089Z,100671.41
2022-08-08T11:09:34.867Z,100658.97
2022-08-08T11:12:13.352Z,100664.84
2022-08-08T11:14:57.079Z,100678.13
2022-08-08T11:17:58.511Z,100672.69
2022-08-08T11:20:27.573Z,100668.81
2022-08-08T11:23:05.747Z,100659.38
2022-08-08T11:25:53.184Z,100656.19
2022-08-08T11:28:29.081Z,100669.06
2022-08-08T11:31:00.174Z,100667.66
2022-08-08T11:33:53.135Z,100665.16
2022-08-08T11:36:16.255Z,100662.66
2022-08-08T11:38:55.638Z,100660.19
2022-08-08T11:41:28.052Z,100653.53
2022-08-08T11:44:00.827Z,100640.31
2022-08-08T11:46:30.488Z,100640.31
2022-08-08T11:49:01.545Z,100642.47
2022-08-08T11:51:38.918Z,100642.47
2022-08-08T11:54:27.443Z,100634.63
2022-08-08T11:56:57.744Z,100640.75
2022-08-08T12:00:01.791Z,100634.13
2022-08-08T12:02:32.834Z,100625.53
2022-08-08T12:05:13.451Z,100620.09
2022-08-08T12:07:56.025Z,100607.53
2022-08-08T12:10:33.617Z,100614.94
2022-08-08T12:13:05.799Z,100616.94
2022-08-08T12:15:49.393Z,100633.88
2022-08-08T12:18:21.603Z,100630.03
2022-08-08T12:20:54.287Z,100604.00
2022-08-08T12:23:59.281Z,100612.66
2022-08-08T12:26:50.253Z,100600.25
2022-08-08T12:29:25.895Z,100617.66
2022-08-08T12:32:19.870Z,100619.41
2022-08-08T12:35:04.673Z,100616.75
2022-08-08T12:38:01.678Z,100618.59
2022-08-08T12:40:56.023Z,100617.41
2022-08-08T12:43:46.558Z,100601.91
2022-08-08T12:46:26.774Z,100592.75
2022-08-08T12:49:25.148Z,100592.19
2022-08-08T12:51:59.060Z,100593.81
2022-08-08T12:54:41.026Z,100597.09
2022-08-08T12:57:23.403Z,100605.25
2022-08-08T13:00:05.744Z,100601.16
2022-08-08T13:02:53.346Z,100590.38
2022-08-08T13:05:26.203Z,100585.91
2022-08-08T13:08:21.211Z,100587.09
2022-08-08T13:10:57.251Z,100584.94
2022-08-08T13:13:34.676Z,100589.72
2022-08-08T13:16:25.998Z,100591.91
2022-08-08T13:19:05.564Z,100583.13
2022-08-08T13:21:53.731Z,100574.47
2022-08-08T13:24:42.157Z,100585.22
2022-08-08T13:27:17.448Z,100582.03
2022-08-08T13:29:56.335Z,100581.44
2022-08-08T13:32:28.679Z,100580.91
2022-08-08T13:34:59.343Z,100579.56
2022-08-08T13:38:05.401Z,100567.78
2022-08-08T13:40:17.619Z,100572.38
2022-08-08T13:42:53.706Z,100571.03
2022-08-08T13:45:24.376Z,100567.75
2022-08-08T13:48:02.928Z,100565.13
2022-08-08T13:50:43.994Z,100554.88
2022-08-08T13:53:34.077Z,100559.72
2022-08-08T13:56:11.689Z,100551.59
2022-08-08T13:58:57.656Z,100553.25
2022-08-08T14:01:52.963Z,100548.19
2022-08-08T14:04:27.590Z,100547.63
2022-08-08T14:07:04.480Z,100550.06
2022-08-08T14:10:04.578Z,100555.19
2022-08-08T14:12:33.770Z,100545.75
2022-08-08T14:15:02.977Z,100553.81
2022-08-08T14:17:58.145Z,100543.88
2022-08-08T14:20:56.578Z,100541.16
2022-08-08T14:24:07.113Z,100536.75
2022-08-08T14:26:11.098Z,100545.50
2022-08-08T14:28:39.661Z,100533.63
2022-08-08T14:31:11.410Z,100532.72
2022-08-08T14:33:56.680Z,100534.13
2022-08-08T14:36:38.796Z,100523.72
2022-08-08T14:39:11.674Z,100520.69
2022-08-08T14:41:54.368Z,100512.13
2022-08-08T14:44:35.036Z,100516.34
2022-08-08T14:47:02.640Z,100517.69
2022-08-08T14:50:06.461Z,100523.66
2022-08-08T14:52:48.258Z,100515.16
2022-08-08T14:55:16.395Z,100510.19
2022-08-08T14:58:03.269Z,100512.53
2022-08-08T15:00:34.858Z,100511.38
2022-08-08T15:03:14.767Z,100514.06
2022-08-08T15:05:52.382Z,100514.34
2022-08-08T15:08:34.607Z,100521.59
2022-08-08T15:11:11.399Z,100513.75
2022-08-08T15:14:00.931Z,100509.13
2022-08-08T15:16:34.309Z,100507.03
2022-08-08T15:19:03.010Z,100518.13
2022-08-08T15:21:30.639Z,100525.63
2022-08-08T15:23:58.279Z,100516.50
2022-08-08T15:26:25.430Z,100518.59
2022-08-08T15:28:54.347Z,100505.66
2022-08-08T15:31:48.932Z,100512.66
2022-08-08T15:34:29.280Z,100514.88
2022-08-08T15:37:05.008Z,100517.00
2022-08-08T15:39:39.450Z,100510.59
2022-08-08T15:42:13.368Z,100515.69
2022-08-08T15:44:55.522Z,100521.88
2022-08-08T15:47:23.875Z,100519.69
2022-08-08T15:49:53.153Z,100517.31
2022-08-08T15:52:23.078Z,100516.22
2022-08-08T15:54:53.008Z,100515.41
2022-08-08T15:57:21.676Z,100515.94
2022-08-08T16:00:14.167Z,100507.06
2022-08-08T16:02:37.232Z,100497.16
2022-08-08T16:05:13.901Z,100497.69
2022-08-08T16:07:52.368Z,100505.47
2022-08-08T16:13:20.818Z,100498.78
2022-08-08T16:13:30.282Z,100507.38
2022-08-08T16:16:03.344Z,100492.88
2022-08-08T16:18:39.892Z,100501.44
2022-08-08T16:21:20.667Z,100493.44
2022-08-08T16:23:55.652Z,100493.41
2022-08-08T16:26:34.255Z,100486.72
2022-08-08T16:29:37.080Z,100493.16
2022-08-08T16:32:08.246Z,100498.25
2022-08-08T16:34:38.229Z,100493.13
2022-08-08T16:37:06.278Z,100486.44
2022-08-08T16:40:00.391Z,100489.88
2022-08-08T16:42:20.751Z,100498.72
2022-08-08T16:44:54.547Z,100490.94
2022-08-08T16:47:40.070Z,100491.75
2022-08-08T16:50:16.699Z,100489.59
2022-08-08T16:55:05.138Z,100488.81
2022-08-08T16:55:55.100Z,100497.66
2022-08-08T16:58:29.379Z,100496.34
2022-08-08T17:01:05.926Z,100493.09
2022-08-08T17:03:58.567Z,100493.34
2022-08-08T17:06:36.797Z,100495.28
2022-08-08T17:09:07.602Z,100496.34
2022-08-08T17:11:48.753Z,100490.97
2022-08-08T17:14:19.494Z,100489.31
2022-08-08T17:16:57.204Z,100491.78
2022-08-08T17:19:29.830Z,100495.56
2022-08-08T17:22:01.477Z,100508.66
2022-08-08T17:24:30.897Z,100495.56
2022-08-08T17:26:59.848Z,100510.56
2022-08-08T17:29:33.835Z,100500.38
2022-08-08T17:32:02.592Z,100502.19
2022-08-08T17:34:36.051Z,100498.19
2022-08-08T17:37:14.899Z,100511.00
2022-08-08T17:40:04.826Z,100502.66
2022-08-08T17:42:29.387Z,100509.09
2022-08-08T17:44:58.297Z,100512.69
2022-08-08T17:47:28.004Z,100513.28
2022-08-08T17:50:01.309Z,100520.75
2022-08-08T17:52:34.405Z,100509.72
2022-08-08T17:55:05.627Z,100518.84
2022-08-08T17:57:50.988Z,100520.72
2022-08-08T18:00:25.824Z,100527.50
2022-08-08T18:03:09.009Z,100536.22
2022-08-08T18:05:48.147Z,100532.59
2022-08-08T18:08:25.144Z,100538.72
2022-08-08T18:11:14.892Z,100543.44
2022-08-08T18:13:47.161Z,100538.34
2022-08-08T18:16:17.092Z,100540.75
2022-08-08T18:18:54.062Z,100542.22
2022-08-08T18:21:59.390Z,100533.38
2022-08-08T18:24:21.598Z,100538.97
2022-08-08T18:26:54.787Z,100553.97
2022-08-08T18:29:30.210Z,100552.50
2022-08-08T18:32:07.316Z,100555.03
2022-08-08T18:34:36.933Z,100557.22
2022-08-08T18:37:08.516Z,100564.31
2022-08-08T18:39:38.763Z,100564.94
2022-08-08T18:42:15.685Z,100568.03
2022-08-08T18:44:55.047Z,100577.72
2022-08-08T18:47:25.447Z,100570.63
2022-08-08T18:49:58.544Z,100585.84
2022-08-08T18:52:27.551Z,100583.44
2022-08-08T18:54:59.313Z,100581.09
2022-08-08T18:57:41.213Z,100585.53
2022-08-08T19:00:20.131Z,100590.53
2022-08-08T19:02:56.803Z,100599.94
2022-08-08T19:05:38.563Z,100600.69
2022-08-08T19:08:25.063Z,100604.03
2022-08-08T19:10:58.439Z,100611.53
2022-08-08T19:13:53.414Z,100618.78
2022-08-08T19:16:18.453Z,100624.94
2022-08-08T19:18:53.321Z,100638.09
2022-08-08T19:21:30.419Z,100639.06
2022-08-08T19:23:58.970Z,100642.63
2022-08-08T19:26:30.403Z,100653.38
2022-08-08T19:28:59.575Z,100653.50
2022-08-08T19:31:31.406Z,100657.22
2022-08-08T19:34:36.340Z,100660.00
2022-08-08T19:36:55.369Z,100662.44
2022-08-08T19:39:25.682Z,100671.75
2022-08-08T19:41:57.868Z,100659.28
2022-08-08T19:44:43.019Z,100662.09
2022-08-08T19:47:12.407Z,100664.78
2022-08-08T19:49:39.622Z,100666.75
2022-08-08T19:52:13.308Z,100671.56
2022-08-08T19:54:43.063Z,100677.69
2022-08-08T19:57:10.472Z,100685.34
2022-08-08T19:59:42.004Z,100686.88
2022-08-08T20:02:09.689Z,100691.41
2022-08-08T20:04:38.465Z,100691.00
2022-08-08T20:08:29.881Z,100687.38
2022-08-08T20:09:58.787Z,100691.34
2022-08-08T20:12:32.445Z,100689.84
2022-08-08T20:15:16.586Z,100690.81
2022-08-08T20:17:46.735Z,100695.25
2022-08-08T20:20:19.728Z,100698.34
2022-08-08T20:22:53.994Z,100704.25
2022-08-08T20:25:22.173Z,100707.78
2022-08-08T20:27:54.056Z,100701.84
2022-08-08T20:30:52.780Z,100700.78
2022-08-08T20:33:20.029Z,100700.22
2022-08-08T20:35:58.707Z,100702.66
2022-08-08T20:38:32.311Z,100701.03
2022-08-08T20:41:12.229Z,100701.84
2022-08-08T20:43:49.341Z,100714.69
2022-08-08T20:46:25.567Z,100714.50
2022-08-08T20:48:55.587Z,100720.00
2022-08-08T20:51:27.212Z,100722.84
2022-08-08T20:54:04.835Z,100726.94
2022-08-08T20:57:04.001Z,100723.50
2022-08-08T20:59:29.058Z,100722.28
2022-08-08T21:02:06.887Z,100719.44
2022-08-08T21:04:36.728Z,100724.72
2022-08-08T21:07:08.368Z,100730.44
2022-08-08T21:10:01.856Z,100729.41
2022-08-08T21:12:38.195Z,100722.69
2022-08-08T21:15:09.750Z,100725.94
2022-08-08T21:17:37.712Z,100724.94
2022-08-08T21:20:06.555Z,100733.28
2022-08-08T21:22:33.827Z,100735.31
2022-08-08T21:25:02.105Z,100725.53
2022-08-08T21:27:39.036Z,100724.13
2022-08-08T21:30:21.673Z,100712.91
2022-08-08T21:32:51.184Z,100719.44
2022-08-08T21:36:13.761Z,100724.31
2022-08-08T21:38:08.510Z,100724.31
2022-08-08T21:40:54.660Z,100721.47
2022-08-08T21:43:22.398Z,100722.25
2022-08-08T21:48:06.369Z,100726.69
2022-08-08T21:48:41.822Z,100727.53
2022-08-08T21:51:16.495Z,100727.53
2022-08-08T21:54:31.632Z,100725.66
2022-08-08T21:57:03.046Z,100730.13
2022-08-08T22:00:02.865Z,100722.81
2022-08-08T22:02:19.639Z,100722.03
2022-08-08T22:04:56.115Z,100715.69
2022-08-08T22:07:39.748Z,100724.22
2022-08-08T22:10:10.124Z,100726.25
2022-08-08T22:13:17.510Z,100730.72
2022-08-08T22:15:59.698Z,100724.41
2022-08-08T22:18:35.366Z,100725.81
2022-08-08T22:21:14.137Z,100737.16
2022-08-08T22:23:50.939Z,100734.09
2022-08-08T22:26:31.004Z,100728.22
2022-08-08T22:29:14.410Z,100728.16
2022-08-08T22:32:01.875Z,100734.94
2022-08-08T22:34:39.537Z,100731.25
2022-08-08T22:37:14.879Z,100739.53
2022-08-08T22:40:00.877Z,100732.63
2022-08-08T22:42:31.954Z,100748.09
2022-08-08T22:45:05.377Z,100737.09
2022-08-08T22:47:41.248Z,100740.16
2022-08-08T22:50:25.767Z,100738.66
2022-08-08T22:54:27.645Z,100737.91
2022-08-08T22:55:59.008Z,100746.84
2022-08-08T22:58:34.192Z,100741.88
2022-08-08T23:01:26.873Z,100754.50
2022-08-08T23:03:56.614Z,100753.38
2022-08-08T23:06:27.310Z,100756.09
2022-08-08T23:08:58.944Z,100754.09
2022-08-08T23:11:30.745Z,100755.75
2022-08-08T23:14:19.328Z,100758.56
2022-08-08T23:16:57.910Z,100744.38
2022-08-08T23:19:32.240Z,100757.56
2022-08-08T23:22:05.325Z,100753.63
2022-08-08T23:24:36.126Z,100759.38
2022-08-08T23:27:06.137Z,100751.59
2022-08-08T23:29:33.591Z,100758.25
2022-08-08T23:32:04.514Z,100757.44
2022-08-08T23:34:33.233Z,100760.53
2022-08-08T23:37:02.598Z,100764.88
2022-08-08T23:39:42.130Z,100764.16
2022-08-08T23:42:16.667Z,100770.25
2022-08-08T23:44:43.623Z,100770.66
2022-08-08T23:49:07.120Z,100777.19
2022-08-08T23:50:03.169Z,100767.25
2022-08-08T23:52:33.672Z,100767.41
2022-08-08T23:55:14.007Z,100768.22
2022-08-08T23:57:52.851Z,100768.72
